International Virtual Aviation Organisation

Russian Federation and Kazakhstan MCD

 

Карточка аэропорта ULAA

Внимание!
Информация на этой странице в стадии наполнения.
Если вы не увидели какой-то информации, или заметили неточность - пожалуйста сообщите нам!
Спасибо!
Команда RU-STAFF
Название аэропортаТалаги
Название аэропорта (англ.)Talagi
Превышение62 ft. (18.9 m.)
Координаты64°36.018', 40°43.002'
Высота перехода800m
Эшелон переходаQFE>=760mm:FL040; QFE<760=>733:FL050; QFE<733:FL060
Коды ответчика3120-3127
Зона ОрВДАрхангельск РПИ (ULAA)
Данные METARULAA 032000Z 22004MPS 160V260 9999 OVC011 M02/M05 Q1029 R26/550345 NOSIG RMK QFE771/1028
Проноз погоды (TAF)ULAA 031700Z 0318/0418 18003MPS 6000 -SHSN BKN012CB TEMPO 0318/0322 21003G09MPS 1000 SHSN BR BKN003 BKN011CB FM032200 19003G09MPS 9999 BKN016CB
NOTAMshow/hide NOTAM
AWOS   TABLE

Информация о ВПП


Диспетчерские позиции

Позывной Наименование органа УВД Частота
ULAA_TWRАрхангельск-Вышка121.8
ULAA_APPАрхангельск-Подход122.0



Спутниковое изображение